Bleiblerville, Texas
Current Conditions -  °F | °C
As of 7:35 AM on Saturday 20 Dec 2014 (Local Time) from K11R Reporting Station
Overcast Overcast  
Wind Chill: 51°   Ceiling: 800
Heat Index: 51°   Visibility: 10mi
Dew Point: 49°   Wind: 5mph
Humidity: 93%   Direction: 350°N
Pressure: 30.22"   Gusts: NA
Location:  30.01°N, 96.45°W
Report Text: K11R 201335Z AUTO 35004KT 10SM OVC008 11/09 A3022 RMK AO2 T01050094
Loading
Personal Weather Stations






























Interactive Weather Map New forecast layout! Learn more

10-Day Weather Forecast

Advertisements
Track Severe Weather on mobile